Time;durP1;ratioP1;P1;durP2;ratioP2;P2;SDS_P1;SDS_P2;PMS_P1;PMS_P2;Temp;Humidity;BMP_temperature;BMP_pressure;BME280_temperature;BME280_humidity;BME280_pressure;Samples;Min_cycle;Max_cycle;Signal;HPM_P1;HPM_P2
2024/01/25 00:02:20;;;;;;;39.30;10.90;;;;;;;7.21;100.00;102642.34;5263344;28;20029;-71
2024/01/25 00:04:52;;;;;;;41.70;11.03;;;;;;;7.12;100.00;102645.50;5262256;28;20053;-71
2024/01/25 00:07:24;;;;;;;50.63;12.47;;;;;;;7.09;100.00;102639.34;5263503;28;20083;-72
2024/01/25 00:09:55;;;;;;;47.27;11.97;;;;;;;7.06;100.00;102621.09;5263461;28;20148;-71
2024/01/25 00:12:26;;;;;;;43.93;10.77;;;;;;;6.99;100.00;102624.31;5251260;28;20068;-72
2024/01/25 00:14:58;;;;;;;45.90;11.47;;;;;;;6.87;100.00;102636.06;5242359;28;20105;-71
2024/01/25 00:17:29;;;;;;;37.97;10.00;;;;;;;6.82;100.00;102634.16;5240679;28;20033;-71
2024/01/25 00:20:01;;;;;;;49.63;10.47;;;;;;;6.77;100.00;102634.03;5242210;28;20392;-71
2024/01/25 00:22:32;;;;;;;38.90;9.77;;;;;;;6.73;100.00;102638.22;5242451;28;20451;-71
2024/01/25 00:25:04;;;;;;;43.40;9.97;;;;;;;6.64;100.00;102640.50;5242520;28;20119;-72
2024/01/25 00:27:35;;;;;;;39.50;10.27;;;;;;;6.57;100.00;102641.16;5242351;28;20044;-72
2024/01/25 00:30:07;;;;;;;35.23;11.27;;;;;;;6.56;100.00;102642.84;5242191;28;20342;-72
2024/01/25 00:32:38;;;;;;;40.07;11.90;;;;;;;6.52;100.00;102635.81;5241877;28;20069;-72
2024/01/25 00:35:13;;;;;;;34.90;10.13;;;;;;;6.46;100.00;102630.41;5242520;28;20118;-72
2024/01/25 00:37:44;;;;;;;42.13;11.57;;;;;;;6.45;100.00;102631.22;5257199;28;20460;-72
2024/01/25 00:40:16;;;;;;;44.20;12.27;;;;;;;6.37;100.00;102637.88;5242082;28;20037;-71
2024/01/25 00:42:52;;;;;;;43.37;10.23;;;;;;;6.32;100.00;102639.41;5242149;28;20029;-72
2024/01/25 00:45:24;;;;;;;54.33;10.82;;;;;;;6.32;100.00;102636.81;5242104;28;20819;-71
2024/01/25 00:47:56;;;;;;;45.03;10.30;;;;;;;6.29;100.00;102642.78;5240456;28;20058;-71
2024/01/25 00:50:27;;;;;;;42.63;10.63;;;;;;;6.24;100.00;102640.88;5241955;28;20111;-71
2024/01/25 00:52:59;;;;;;;51.10;12.13;;;;;;;6.18;100.00;102644.09;5241633;28;20036;-71
2024/01/25 00:55:31;;;;;;;39.80;9.77;;;;;;;6.10;100.00;102641.28;5241708;28;20033;-72
2024/01/25 00:58:02;;;;;;;45.37;10.90;;;;;;;6.12;100.00;102646.50;5223697;28;20030;-72
2024/01/25 01:00:34;;;;;;;52.80;13.67;;;;;;;6.09;100.00;102651.56;5241674;28;20458;-72
2024/01/25 01:03:06;;;;;;;39.43;11.03;;;;;;;6.03;100.00;102653.09;5241269;28;20044;-71
2024/01/25 01:05:37;;;;;;;64.03;12.83;;;;;;;6.01;100.00;102648.69;5241534;28;20021;-70
2024/01/25 01:08:10;;;;;;;48.67;11.03;;;;;;;6.05;100.00;102647.09;5241109;28;20038;-71
2024/01/25 01:10:41;;;;;;;46.28;10.23;;;;;;;5.97;100.00;102652.00;5241211;28;20045;-72
2024/01/25 01:13:12;;;;;;;46.10;10.57;;;;;;;5.90;100.00;102650.84;5241470;28;20049;-72
2024/01/25 01:15:44;;;;;;;39.00;10.63;;;;;;;5.87;100.00;102648.16;5241140;28;20056;-72
2024/01/25 01:18:15;;;;;;;48.90;11.63;;;;;;;5.85;100.00;102648.09;5241136;28;20033;-71
2024/01/25 01:20:47;;;;;;;47.23;11.63;;;;;;;5.87;100.00;102653.34;5241267;28;20040;-72
2024/01/25 01:23:19;;;;;;;45.63;10.17;;;;;;;5.88;100.00;102662.88;5241518;28;20033;-71
2024/01/25 01:25:50;;;;;;;50.17;11.43;;;;;;;5.84;100.00;102661.88;5241368;28;20029;-72
2024/01/25 01:28:21;;;;;;;44.13;11.07;;;;;;;5.78;100.00;102664.25;5241333;28;20048;-72
2024/01/25 01:30:53;;;;;;;53.30;11.87;;;;;;;5.78;100.00;102666.81;5241693;28;20124;-71
2024/01/25 01:33:24;;;;;;;43.80;11.90;;;;;;;5.75;100.00;102666.72;5240531;28;20397;-70
2024/01/25 01:35:55;;;;;;;59.37;12.90;;;;;;;5.65;100.00;102657.72;5241270;28;20038;-71
2024/01/25 01:38:27;;;;;;;51.27;11.70;;;;;;;5.59;100.00;102674.72;5241126;28;20041;-71
2024/01/25 01:40:58;;;;;;;48.87;11.63;;;;;;;5.55;100.00;102678.00;5241044;28;20491;-71
2024/01/25 01:43:29;;;;;;;46.97;11.43;;;;;;;5.39;100.00;102664.47;5241101;28;20053;-70
2024/01/25 01:46:06;;;;;;;56.10;12.73;;;;;;;5.36;100.00;102664.38;5240772;28;20095;-71
2024/01/25 01:48:41;;;;;;;58.83;12.70;;;;;;;5.29;100.00;102673.56;5240557;28;20053;-71
2024/01/25 01:51:13;;;;;;;48.88;11.35;;;;;;;5.32;100.00;102677.13;5240650;28;20049;-72
2024/01/25 01:53:45;;;;;;;58.97;11.83;;;;;;;5.28;100.00;102678.69;5240580;28;20037;-71
2024/01/25 01:56:17;;;;;;;;;;;;;;;5.24;100.00;102689.75;5240031;28;20030;-70
2024/01/25 01:58:48;;;;;;;52.25;11.02;;;;;;;5.24;100.00;102692.34;5240943;28;19917;-72
2024/01/25 02:01:20;;;;;;;54.53;10.93;;;;;;;5.17;100.00;102700.66;5240781;28;20032;-71
2024/01/25 02:03:52;;;;;;;63.47;16.42;;;;;;;5.16;100.00;102699.78;5240273;28;20029;-72
2024/01/25 02:06:24;;;;;;;58.87;13.83;;;;;;;5.13;100.00;102697.06;5240761;28;20041;-72
2024/01/25 02:08:58;;;;;;;46.90;11.17;;;;;;;5.11;100.00;102704.75;5240781;28;20034;-71
2024/01/25 02:11:30;;;;;;;51.53;13.45;;;;;;;5.02;100.00;102699.19;5244891;28;20033;-71
2024/01/25 02:14:01;;;;;;;49.20;10.93;;;;;;;5.03;100.00;102710.44;5244555;28;20036;-73
2024/01/25 02:16:32;;;;;;;50.17;12.57;;;;;;;4.95;100.00;102722.16;5245036;28;20037;-71
2024/01/25 02:19:04;;;;;;;54.17;10.90;;;;;;;4.91;100.00;102727.22;5244798;28;20026;-72
2024/01/25 02:21:35;;;;;;;47.37;11.20;;;;;;;4.85;100.00;102728.66;5243589;28;20193;-72
2024/01/25 02:24:06;;;;;;;49.03;13.93;;;;;;;4.86;100.00;102735.56;5244575;28;20489;-72
2024/01/25 02:26:38;;;;;;;53.90;12.50;;;;;;;4.80;100.00;102733.63;5243600;28;20111;-72
2024/01/25 02:29:09;;;;;;;53.57;10.13;;;;;;;4.86;100.00;102733.00;5244519;28;20026;-72
2024/01/25 02:31:41;;;;;;;59.80;13.27;;;;;;;4.83;100.00;102727.69;5244743;28;20120;-71
2024/01/25 02:34:12;;;;;;;59.90;12.03;;;;;;;4.78;100.00;102735.25;5244146;28;20112;-71
2024/01/25 02:36:43;;;;;;;56.17;11.87;;;;;;;4.70;100.00;102732.34;5259753;28;20041;-72
2024/01/25 02:39:15;;;;;;;51.83;11.50;;;;;;;4.69;100.00;102734.88;5244280;28;20025;-71
2024/01/25 02:41:46;;;;;;;39.97;10.53;;;;;;;4.63;100.00;102737.19;5244659;28;20449;-71
2024/01/25 02:44:18;;;;;;;49.30;12.43;;;;;;;4.57;100.00;102738.69;5244555;28;20064;-72
2024/01/25 02:46:49;;;;;;;42.23;10.33;;;;;;;4.57;100.00;102736.13;5244249;28;20036;-72
2024/01/25 02:49:20;;;;;;;54.57;12.20;;;;;;;4.54;100.00;102737.66;5244802;28;20108;-71
2024/01/25 02:51:52;;;;;;;54.63;12.30;;;;;;;4.51;100.00;102742.72;5244449;28;20124;-71
2024/01/25 02:54:23;;;;;;;63.60;13.60;;;;;;;4.45;100.00;102730.41;5244123;28;20143;-72
2024/01/25 02:56:54;;;;;;;48.97;10.93;;;;;;;4.38;100.00;102731.84;5243971;28;20037;-71
2024/01/25 02:59:26;;;;;;;53.97;12.30;;;;;;;4.30;100.00;102733.22;5243811;28;20041;-71
2024/01/25 03:01:57;;;;;;;64.60;12.33;;;;;;;4.27;100.00;102733.06;5244241;28;20354;-71
2024/01/25 03:04:28;;;;;;;65.87;14.20;;;;;;;4.33;100.00;102733.34;5244053;28;20116;-71
2024/01/25 03:07:00;;;;;;;60.33;13.33;;;;;;;4.32;100.00;102730.69;5244092;28;20037;-71
2024/01/25 03:09:31;;;;;;;62.77;14.03;;;;;;;4.27;100.00;102729.63;5243708;28;20030;-71
2024/01/25 03:12:03;;;;;;;55.00;11.93;;;;;;;4.26;100.00;102718.38;5244031;28;20044;-71
2024/01/25 03:14:34;;;;;;;49.33;11.43;;;;;;;4.26;100.00;102726.13;5243982;28;20034;-70
2024/01/25 03:17:05;;;;;;;55.83;12.33;;;;;;;4.24;100.00;102729.47;5243964;28;20037;-71
2024/01/25 03:19:37;;;;;;;54.83;13.73;;;;;;;4.24;100.00;102729.47;5243625;28;20088;-71
2024/01/25 03:22:08;;;;;;;45.77;9.73;;;;;;;4.19;100.00;102724.97;5242655;28;20033;-71
2024/01/25 03:24:40;;;;;;;48.20;9.80;;;;;;;4.19;100.00;102719.81;5242285;28;20124;-71
2024/01/25 03:27:13;;;;;;;51.47;9.93;;;;;;;4.16;100.00;102718.78;5243574;28;20424;-71
2024/01/25 03:29:44;;;;;;;54.60;12.10;;;;;;;4.15;100.00;102719.59;5243527;28;20056;-72
2024/01/25 03:32:16;;;;;;;48.20;12.23;;;;;;;4.14;100.00;102725.59;5243246;28;20041;-72
2024/01/25 03:34:47;;;;;;;52.13;11.77;;;;;;;4.09;100.00;102725.38;5258831;28;20040;-71
2024/01/25 03:37:18;;;;;;;53.30;11.80;;;;;;;4.11;100.00;102730.63;5242017;28;20029;-71
2024/01/25 03:39:50;;;;;;;59.23;10.90;;;;;;;4.03;100.00;102730.25;5243345;28;20033;-72
2024/01/25 03:42:21;;;;;;;41.57;10.07;;;;;;;3.98;100.00;102730.06;5242002;28;20044;-72
2024/01/25 03:44:52;;;;;;;47.57;10.63;;;;;;;3.91;100.00;102740.00;5241944;28;20385;-71
2024/01/25 03:47:24;;;;;;;49.10;11.33;;;;;;;3.90;100.00;102738.28;5243266;28;20061;-72
2024/01/25 03:49:55;;;;;;;42.03;11.33;;;;;;;3.86;100.00;102739.81;5243447;28;20604;-72
2024/01/25 03:52:29;;;;;;;55.57;12.47;;;;;;;3.80;100.00;102743.00;5242851;28;20032;-72
2024/01/25 03:55:01;;;;;;;57.83;9.60;;;;;;;3.71;100.00;102739.09;5243246;28;20049;-71
2024/01/25 03:57:32;;;;;;;41.63;10.77;;;;;;;3.62;100.00;102740.44;5242957;28;20034;-71
2024/01/25 04:00:05;;;;;;;53.00;13.60;;;;;;;3.57;100.00;102741.91;5242729;28;20033;-71
2024/01/25 04:02:37;;;;;;;44.63;10.18;;;;;;;3.59;100.00;102742.88;5257417;28;20036;-72
2024/01/25 04:05:08;;;;;;;40.63;9.77;;;;;;;3.52;100.00;102740.78;5242889;28;20481;-72
2024/01/25 04:07:40;;;;;;;47.53;11.23;;;;;;;3.51;100.00;102740.72;5242666;28;20104;-71
2024/01/25 04:10:11;;;;;;;57.07;11.03;;;;;;;3.49;100.00;102739.78;5242707;28;20036;-71
2024/01/25 04:12:43;;;;;;;52.77;12.43;;;;;;;3.38;100.00;102745.31;5242592;28;20032;-72
2024/01/25 04:15:14;;;;;;;50.03;10.60;;;;;;;3.32;100.00;102749.25;5242287;28;20052;-72
2024/01/25 04:17:45;;;;;;;55.47;11.40;;;;;;;3.28;100.00;102759.44;5242175;28;20428;-72
2024/01/25 04:20:17;;;;;;;49.47;9.67;;;;;;;3.25;100.00;102766.13;5242448;28;20034;-72
2024/01/25 04:22:48;;;;;;;55.23;10.87;;;;;;;3.23;100.00;102758.31;5242526;28;20125;-72
2024/01/25 04:25:19;;;;;;;56.03;12.27;;;;;;;3.20;100.00;102762.44;5242479;28;20025;-73
2024/01/25 04:27:51;;;;;;;60.03;14.00;;;;;;;3.23;100.00;102752.28;5242245;28;20025;-72
2024/01/25 04:30:22;;;;;;;60.33;14.00;;;;;;;3.14;100.00;102755.31;5242675;28;20041;-71
2024/01/25 04:32:53;;;;;;;59.77;10.50;;;;;;;3.11;100.00;102757.72;5241340;28;20072;-72
2024/01/25 04:35:25;;;;;;;55.40;12.27;;;;;;;3.08;100.00;102757.56;5242095;28;20045;-71
2024/01/25 04:37:56;;;;;;;57.53;12.20;;;;;;;3.08;100.00;102747.28;5241994;28;20105;-71
2024/01/25 04:40:27;;;;;;;60.83;11.97;;;;;;;3.09;100.00;102741.28;5242145;28;20034;-71
2024/01/25 04:42:59;;;;;;;58.40;12.97;;;;;;;3.04;100.00;102748.81;5241989;28;20030;-72
2024/01/25 04:45:30;;;;;;;67.87;12.73;;;;;;;3.06;100.00;102743.75;5242077;28;20061;-73
2024/01/25 04:48:02;;;;;;;55.27;12.10;;;;;;;2.97;100.00;102743.28;5241915;28;20056;-71
2024/01/25 04:50:34;;;;;;;46.30;10.23;;;;;;;2.96;100.00;102739.78;5257353;28;20034;-72
2024/01/25 04:53:05;;;;;;;46.03;11.93;;;;;;;2.96;100.00;102744.06;5242005;28;20034;-72
2024/01/25 04:55:36;;;;;;;49.50;9.63;;;;;;;2.92;100.00;102741.34;5241508;28;20033;-70
2024/01/25 04:58:08;;;;;;;62.77;12.33;;;;;;;2.94;100.00;102746.56;5241913;28;20033;-71
2024/01/25 05:00:39;;;;;;;49.27;10.53;;;;;;;2.90;100.00;102750.69;5241359;28;20028;-71
2024/01/25 05:03:11;;;;;;;54.83;12.40;;;;;;;2.83;100.00;102748.59;5241364;28;20049;-71
2024/01/25 05:05:42;;;;;;;50.37;10.43;;;;;;;2.74;100.00;102745.59;5241821;28;20393;-71
2024/01/25 05:08:14;;;;;;;58.20;10.63;;;;;;;2.79;100.00;102748.38;5241357;28;20120;-71
2024/01/25 05:10:45;;;;;;;49.90;11.03;;;;;;;2.80;100.00;102737.25;5241686;28;20032;-70
2024/01/25 05:13:16;;;;;;;59.80;12.23;;;;;;;2.80;100.00;102742.41;5241568;28;20040;-71
2024/01/25 05:15:48;;;;;;;56.67;11.90;;;;;;;2.77;100.00;102737.09;5241587;28;20029;-71
2024/01/25 05:18:19;;;;;;;51.93;10.27;;;;;;;2.70;100.00;102735.91;5241810;28;20061;-71
2024/01/25 05:20:50;;;;;;;55.60;12.47;;;;;;;2.65;100.00;102727.94;5241058;28;20029;-71
2024/01/25 05:23:22;;;;;;;62.20;12.70;;;;;;;2.65;100.00;102724.50;5241469;28;20077;-71
2024/01/25 05:25:53;;;;;;;60.03;10.40;;;;;;;2.61;100.00;102726.03;5241073;28;20083;-71
2024/01/25 05:28:25;;;;;;;58.47;11.00;;;;;;;2.58;100.00;102735.28;5241317;28;20033;-71
2024/01/25 05:30:56;;;;;;;53.67;12.07;;;;;;;2.53;100.00;102735.94;5241228;28;20041;-72
2024/01/25 05:33:27;;;;;;;47.10;11.07;;;;;;;2.53;100.00;102738.50;5241171;28;20108;-73
2024/01/25 05:35:59;;;;;;;49.97;11.23;;;;;;;2.53;100.00;102743.66;5240870;28;20030;-73
2024/01/25 05:38:30;;;;;;;52.93;11.47;;;;;;;2.50;100.00;102738.34;5241235;28;20497;-71
2024/01/25 05:41:01;;;;;;;54.57;11.23;;;;;;;2.48;100.00;102739.97;5241071;28;20033;-72
2024/01/25 05:43:33;;;;;;;60.37;13.40;;;;;;;2.42;100.00;102733.63;5240632;28;20033;-71
2024/01/25 05:46:04;;;;;;;52.90;12.83;;;;;;;2.41;100.00;102748.16;5240849;28;20038;-71
2024/01/25 05:48:36;;;;;;;60.53;12.43;;;;;;;2.41;100.00;102742.16;5240831;28;20063;-72
2024/01/25 05:51:07;;;;;;;61.33;13.10;;;;;;;2.51;100.00;102742.72;5255501;28;20503;-71
2024/01/25 05:53:38;;;;;;;55.17;15.53;;;;;;;2.51;100.00;102747.84;5261292;28;20386;-71
2024/01/25 05:56:10;;;;;;;63.07;12.83;;;;;;;2.45;100.00;102757.84;5261314;28;20486;-72
2024/01/25 05:58:41;;;;;;;58.40;12.00;;;;;;;2.42;100.00;102760.25;5261723;28;20033;-71
2024/01/25 06:01:12;;;;;;;54.30;13.10;;;;;;;2.36;100.00;102759.91;5261146;28;20040;-71
2024/01/25 06:03:44;;;;;;;55.97;11.27;;;;;;;2.34;100.00;102756.38;5260961;28;20385;-70
2024/01/25 06:06:15;;;;;;;50.83;12.23;;;;;;;2.44;100.00;102752.59;5261064;28;20058;-70
2024/01/25 06:08:47;;;;;;;55.50;12.33;;;;;;;2.40;100.00;102751.56;5261321;28;20025;-71
2024/01/25 06:11:18;;;;;;;69.13;14.07;;;;;;;2.33;100.00;102749.47;5261254;28;20090;-72
2024/01/25 06:13:49;;;;;;;60.20;13.37;;;;;;;2.37;100.00;102752.28;5261735;28;20119;-72
2024/01/25 06:16:21;;;;;;;66.17;13.53;;;;;;;2.35;100.00;102756.47;5261287;28;20025;-72
2024/01/25 06:18:52;;;;;;;62.63;14.03;;;;;;;2.26;100.00;102760.25;5261234;28;20150;-70
2024/01/25 06:21:24;;;;;;;64.00;12.57;;;;;;;2.30;100.00;102754.44;5259748;28;20025;-70
2024/01/25 06:23:55;;;;;;;55.63;13.37;;;;;;;2.25;100.00;102758.47;5261510;28;20068;-71
2024/01/25 06:26:26;;;;;;;61.07;15.97;;;;;;;2.09;100.00;102755.06;5259985;28;20041;-71
2024/01/25 06:28:58;;;;;;;64.87;15.20;;;;;;;2.07;100.00;102764.38;5261292;28;20025;-72
2024/01/25 06:31:29;;;;;;;66.20;15.53;;;;;;;2.06;100.00;102767.78;5259747;28;20094;-70
2024/01/25 06:34:01;;;;;;;51.73;13.47;;;;;;;2.07;100.00;102766.09;5260679;28;20116;-71
2024/01/25 06:36:32;;;;;;;59.70;12.53;;;;;;;2.10;100.00;102769.69;5259956;28;20108;-71
2024/01/25 06:39:04;;;;;;;61.83;13.03;;;;;;;2.21;100.00;102766.81;5261264;28;20333;-71
2024/01/25 06:41:35;;;;;;;58.23;13.40;;;;;;;2.21;100.00;102772.88;5259929;28;20033;-71
2024/01/25 06:44:07;;;;;;;73.63;13.60;;;;;;;2.17;100.00;102769.25;5243284;28;20056;-71
2024/01/25 06:46:38;;;;;;;70.33;14.97;;;;;;;2.12;100.00;102767.22;5261041;28;20041;-71
2024/01/25 06:49:09;;;;;;;69.03;12.97;;;;;;;2.16;100.00;102771.75;5260972;28;20096;-71
2024/01/25 06:51:41;;;;;;;58.90;13.70;;;;;;;2.05;100.00;102763.44;5261143;28;20048;-71
2024/01/25 06:54:12;;;;;;;67.67;14.43;;;;;;;2.10;100.00;102763.69;5260974;28;20036;-71
2024/01/25 06:56:44;;;;;;;75.73;17.40;;;;;;;2.08;100.00;102766.16;5263887;28;20036;-71
2024/01/25 06:59:15;;;;;;;57.53;13.80;;;;;;;1.99;100.00;102768.25;5264569;28;20037;-71
2024/01/25 07:01:47;;;;;;;58.67;13.93;;;;;;;1.88;100.00;102782.19;5264955;28;20410;-71
2024/01/25 07:04:18;;;;;;;62.00;13.47;;;;;;;1.76;100.00;102775.59;5264386;28;20052;-71
2024/01/25 07:06:50;;;;;;;59.50;13.60;;;;;;;1.66;100.00;102765.59;5264679;28;20087;-71
2024/01/25 07:09:21;;;;;;;47.57;12.40;;;;;;;1.57;100.00;102772.78;5264333;28;20082;-71
2024/01/25 07:11:52;;;;;;;54.93;13.67;;;;;;;1.60;100.00;102772.97;5264388;28;20460;-71
2024/01/25 07:14:24;;;;;;;55.87;12.33;;;;;;;1.60;100.00;102767.81;5264513;28;20396;-71
2024/01/25 07:16:55;;;;;;;53.27;12.27;;;;;;;1.52;100.00;102767.38;5264287;28;20514;-71
2024/01/25 07:19:26;;;;;;;53.37;13.67;;;;;;;1.52;100.00;102774.22;5264080;28;20048;-71
2024/01/25 07:21:58;;;;;;;58.17;12.70;;;;;;;1.44;100.00;102772.09;5264523;28;20441;-71
2024/01/25 07:24:29;;;;;;;51.63;12.77;;;;;;;1.55;100.00;102769.25;5264488;28;20067;-71
2024/01/25 07:27:00;;;;;;;67.23;15.70;;;;;;;1.65;100.00;102776.66;5264649;28;20044;-71
2024/01/25 07:29:32;;;;;;;70.83;16.57;;;;;;;1.83;100.00;102784.50;5264034;28;20041;-71
2024/01/25 07:32:03;;;;;;;77.83;17.53;;;;;;;1.90;100.00;102790.88;5246019;28;20545;-71
2024/01/25 07:34:35;;;;;;;74.53;15.90;;;;;;;2.03;100.00;102789.88;5263821;28;20029;-71
2024/01/25 07:37:06;;;;;;;65.77;15.73;;;;;;;2.10;100.00;102802.28;5264276;28;20078;-71
2024/01/25 07:39:38;;;;;;;67.67;14.27;;;;;;;2.15;100.00;102794.00;5264117;28;20029;-71
2024/01/25 07:42:09;;;;;;;67.30;16.60;;;;;;;2.29;100.00;102783.56;5263868;28;20033;-70
2024/01/25 07:44:41;;;;;;;74.37;15.53;;;;;;;2.33;100.00;102780.34;5264097;28;20484;-71
2024/01/25 07:47:13;;;;;;;69.07;15.30;;;;;;;2.39;100.00;102785.81;5263975;28;20438;-71
2024/01/25 07:49:45;;;;;;;80.40;17.10;;;;;;;2.42;100.00;102792.84;5263894;28;20033;-71
2024/01/25 07:52:16;;;;;;;68.07;18.20;;;;;;;2.43;100.00;102781.72;5262675;28;20103;-71
2024/01/25 07:54:48;;;;;;;62.57;15.67;;;;;;;2.51;100.00;102781.31;5264003;28;20453;-69
2024/01/25 07:57:19;;;;;;;68.90;18.63;;;;;;;2.53;100.00;102779.72;5263908;28;20032;-70
2024/01/25 07:59:51;;;;;;;71.10;18.17;;;;;;;2.63;100.00;102780.19;5263628;28;20536;-70
2024/01/25 08:02:22;;;;;;;67.20;18.27;;;;;;;2.72;100.00;102785.78;5263736;28;20044;-71
2024/01/25 08:04:55;;;;;;;64.07;18.37;;;;;;;2.79;100.00;102787.03;5263250;28;20033;-70
2024/01/25 08:07:27;;;;;;;70.22;19.40;;;;;;;2.85;100.00;102795.94;5262854;28;20040;-71
2024/01/25 08:09:59;;;;;;;68.70;16.67;;;;;;;2.86;100.00;102799.41;5263698;28;20037;-71
2024/01/25 08:12:30;;;;;;;71.30;18.93;;;;;;;2.88;100.00;102809.00;5262163;28;20451;-71
2024/01/25 08:15:01;;;;;;;73.10;18.43;;;;;;;2.90;100.00;102802.22;5245429;28;20299;-71
2024/01/25 08:17:35;;;;;;;69.33;20.20;;;;;;;2.96;100.00;102799.03;5263120;28;20041;-72
2024/01/25 08:20:08;;;;;;;86.30;21.23;;;;;;;3.00;100.00;102797.53;5263005;28;20029;-72
2024/01/25 08:22:43;;;;;;;80.15;21.08;;;;;;;3.06;100.00;102813.31;5261508;28;20033;-71
2024/01/25 08:25:16;;;;;;;63.05;18.58;;;;;;;3.13;100.00;102814.50;5263325;28;20025;-71
2024/01/25 08:27:47;;;;;;;;;;;;;;;3.16;100.00;102814.66;5263161;28;20055;-71
2024/01/25 08:30:18;;;;;;;69.25;18.40;;;;;;;3.23;100.00;102789.25;5263127;28;20299;-70
2024/01/25 08:32:51;;;;;;;76.37;19.63;;;;;;;3.29;100.00;102766.34;5262654;28;20032;-71
2024/01/25 08:35:22;;;;;;;;;;;;;;;3.36;100.00;102769.25;5263395;28;20056;-70
2024/01/25 08:37:54;;;;;;;;;;;;;;;3.38;100.00;102768.50;5263361;28;20018;-71
2024/01/25 08:40:25;;;;;;;;;;;;;;;3.44;100.00;102762.75;5263326;28;19931;-71
2024/01/25 08:42:56;;;;;;;;;;;;;;;3.48;100.00;102775.00;5263334;28;20004;-71
2024/01/25 08:45:27;;;;;;;;;;;;;;;3.53;100.00;102791.56;5263076;28;19939;-71
2024/01/25 08:47:59;;;;;;;;;;;;;;;3.58;100.00;102815.00;5262963;28;20324;-72
2024/01/25 08:50:31;;;;;;;;;;;;;;;3.62;100.00;102815.25;5263160;28;19976;-71
2024/01/25 08:53:02;;;;;;;;;;;;;;;3.65;100.00;102811.91;5263256;28;20344;-71
2024/01/25 08:55:33;;;;;;;;;;;;;;;3.69;100.00;102808.69;5263443;28;20011;-71
2024/01/25 08:58:05;;;;;;;;;;;;;;;3.77;100.00;102811.63;5263031;28;19913;-71
2024/01/25 09:00:36;;;;;;;;;;;;;;;3.84;100.00;102799.06;5262972;28;19942;-71
2024/01/25 09:03:07;;;;;;;;;;;;;;;3.92;100.00;102804.59;5262444;28;19916;-72
2024/01/25 09:05:44;;;;;;;;;;;;;;;3.98;100.00;102804.00;5262861;28;19917;-72
2024/01/25 09:08:16;;;;;;;;;;;;;;;4.04;100.00;102801.69;5262875;28;20354;-71
2024/01/25 09:10:47;;;;;;;;;;;;;;;4.11;100.00;102808.94;5262677;28;19970;-71
2024/01/25 09:13:18;;;;;;;;;;;;;;;4.21;100.00;102807.66;5262685;28;19924;-71
2024/01/25 09:15:50;;;;;;;;;;;;;;;4.25;100.00;102808.66;5262761;28;19917;-72
2024/01/25 09:18:21;;;;;;;;;;;;;;;4.32;100.00;102808.16;5262587;28;19912;-72
2024/01/25 09:20:53;;;;;;;;;;;;;;;4.41;100.00;102812.84;5262229;28;19916;-72
2024/01/25 09:23:24;;;;;;;;;;;;;;;4.53;100.00;102803.06;5262416;28;19913;-72
2024/01/25 09:25:55;;;;;;;;;;;;;;;4.65;100.00;102801.00;5261159;28;19921;-72
2024/01/25 09:28:27;;;;;;;;;;;;;;;4.75;100.00;102798.03;5262478;28;19916;-71
2024/01/25 09:30:58;;;;;;;;;;;;;;;4.77;100.00;102789.47;5262760;28;20007;-73
2024/01/25 09:33:30;;;;;;;;;;;;;;;4.82;100.00;102806.91;5261896;28;19916;-71
2024/01/25 09:36:01;;;;;;;;;;;;;;;4.92;100.00;102818.53;5262227;28;19939;-72
2024/01/25 09:38:33;;;;;;;;;;;;;;;5.04;100.00;102813.91;5262311;28;19917;-71
2024/01/25 09:41:04;;;;;;;;;;;;;;;5.20;100.00;102804.19;5262194;28;19916;-71
2024/01/25 09:43:36;;;;;;;;;;;;;;;5.29;100.00;102804.59;5260851;28;19927;-70
2024/01/25 09:46:12;;;;;;;;;;;;;;;5.27;100.00;102807.09;5261786;28;19920;-71
2024/01/25 09:48:45;;;;;;;;;;;;;;;5.33;100.00;102819.41;5262037;28;20419;-71
2024/01/25 09:51:17;;;;;;;;;;;;;;;5.33;100.00;102821.09;5261799;28;19928;-71
2024/01/25 09:53:48;;;;;;;;;;;;;;;5.23;100.00;102827.59;5264239;28;20391;-69
2024/01/25 09:56:20;;;;;;;;;;;;;;;5.20;100.00;102830.94;5262361;28;19913;-71
2024/01/25 09:58:52;;;;;;;;;;;;;;;5.29;100.00;102818.38;5262021;28;20077;-71
2024/01/25 10:01:23;;;;;;;;;;;;;;;5.30;100.00;102812.41;5261572;28;19912;-72
2024/01/25 10:03:58;;;;;;;;;;;;;;;5.44;100.00;102817.25;5260285;28;19924;-72
2024/01/25 10:06:29;;;;;;;;;;;;;;;5.58;100.00;102812.66;5261989;28;19917;-70
2024/01/25 10:09:00;;;;;;;;;;;;;;;5.74;100.00;102804.69;5261902;28;20367;-72
2024/01/25 10:11:35;;;;;;;;;;;;;;;5.95;100.00;102807.22;5261539;28;19924;-71
2024/01/25 10:14:08;;;;;;;;;;;;;;;6.02;100.00;102793.75;5261699;28;19967;-72
2024/01/25 10:16:39;;;;;;;;;;;;;;;6.18;100.00;102782.25;5262002;28;20387;-72
2024/01/25 10:19:11;;;;;;;;;;;;;;;6.33;100.00;102792.31;5261508;28;19956;-72
2024/01/25 10:21:42;;;;;;;;;;;;;;;6.48;100.00;102791.97;5261788;28;19917;-72
2024/01/25 10:24:14;;;;;;;;;;;;;;;6.53;100.00;102794.72;5261735;28;19916;-71
2024/01/25 10:26:45;;;;;;;;;;;;;;;6.49;100.00;102796.34;5260511;28;20015;-71
2024/01/25 10:29:17;;;;;;;;;;;;;;;6.54;100.00;102805.16;5261706;28;20011;-71
2024/01/25 10:31:48;;;;;;;;;;;;;;;6.61;100.00;102803.66;5264973;28;20011;-71
2024/01/25 10:34:20;;;;;;;;;;;;;;;6.75;100.00;102788.63;5265591;28;20007;-72
2024/01/25 10:36:52;;;;;;;;;;;;;;;6.78;100.00;102772.25;5266139;28;19963;-72
2024/01/25 10:39:24;;;;;;;;;;;;;;;6.88;100.00;102771.78;5265887;28;19970;-72
2024/01/25 10:41:56;;;;;;;;;;;;;;;6.97;100.00;102771.19;5265824;28;19955;-72
2024/01/25 10:44:27;;;;;;;;;;;;;;;6.98;100.00;102766.06;5265413;28;19966;-72
2024/01/25 10:46:58;;;;;;;;;;;;;;;7.09;100.00;102763.84;5265667;28;19913;-72
2024/01/25 10:49:31;;;;;;;;;;;;;;;7.11;100.00;102759.56;5264177;28;19920;-71
2024/01/25 10:52:04;;;;;;;;;;;;;;;7.16;100.00;102759.72;5265536;28;19960;-70
2024/01/25 10:54:35;;;;;;;;;;;;;;;7.16;100.00;102762.31;5264173;28;19913;-72
2024/01/25 10:57:08;;;;;;;;;;;;;;;7.23;100.00;102767.78;5265120;28;19923;-72
2024/01/25 10:59:40;;;;;;;;;;;;;;;7.28;100.00;102761.03;5264059;28;19912;-71
2024/01/25 11:02:12;;;;;;;;;;;;;;;7.36;100.00;102757.78;5265416;28;20011;-71
2024/01/25 11:04:51;;;;;;;;;;;;;;;7.35;100.00;102761.22;5264803;28;19924;-71
2024/01/25 11:07:23;;;;;;;;;;;;;;;7.46;100.00;102757.25;5265337;28;20011;-72
2024/01/25 11:09:54;;;;;;;;;;;;;;;7.55;100.00;102741.97;5265127;28;20004;-70
2024/01/25 11:12:26;;;;;;;;;;;;;;;7.59;100.00;102728.25;5264710;28;19921;-71
2024/01/25 11:14:57;;;;;;;;;;;;;;;7.59;100.00;102717.00;5265124;28;20253;-72
2024/01/25 11:17:31;;;;;;;;;;;;;;;7.48;100.00;102722.72;5265013;28;19923;-72
2024/01/25 11:20:03;;;;;;;;;;;;;;;7.37;100.00;102731.00;5264749;28;19960;-72
2024/01/25 11:22:35;;;;;;;;;;;;;;;7.38;100.00;102728.47;5264948;28;19948;-71
2024/01/25 11:25:17;;;;;;;;;;;;;;;7.38;100.00;102732.78;5263704;28;20291;-72
2024/01/25 11:27:49;;;;;;;;;;;;;;;7.35;100.00;102709.34;5265194;28;19967;-72
2024/01/25 11:30:21;;;;;;;;;;;;;;;7.31;100.00;102705.78;5264676;28;19917;-72
2024/01/25 11:32:52;;;;;;;;;;;;;;;7.39;100.00;102708.56;5264383;28;20360;-72
2024/01/25 11:35:24;;;;;;;;;;;;;;;7.34;100.00;102703.28;5264288;28;19987;-71
2024/01/25 11:37:55;;;;;;;;;;;;;;;7.46;100.00;102707.94;5264574;28;20315;-71
2024/01/25 11:40:28;;;;;;;;;;;;;;;7.59;100.00;102701.44;5264040;28;19964;-71
2024/01/25 11:42:59;;;;;;;;;;;;;;;7.63;100.00;102706.75;5263627;28;19917;-71
2024/01/25 11:45:31;;;;;;;;;;;;;;;7.78;100.00;102682.09;5263945;28;19999;-72
2024/01/25 11:48:02;;;;;;;;;;;;;;;7.84;100.00;102697.81;5246106;28;19971;-71
2024/01/25 11:50:34;;;;;;;;;;;;;;;7.81;100.00;102702.97;5264263;28;20276;-71
2024/01/25 11:53:05;;;;;;;;;;;;;;;7.92;100.00;102703.25;5264267;28;19928;-72